Whidbey Island Naval Air Station, Ault Field, Airport Oak Harbor US
ICAO: KNUW
IATA: NUW
Category: Medium
Scheduled Services: No

Elevation: 47 ft
TransAlt. 18000 ft.

Airport Communications:
APP/DEP:118.2
ATIS:134.15
CLNC DEL:124.15
GND:121.75
BASE OPS:35.01
PMSV METRO:34.34
TWR:127.9

KNUW Zoom In..

Runways:

(A) RW 07 length 8000 ft width 200 ft
---- / hdg 69

(B) RW 14 length 8001 ft width 200 ft
ILS 110.10 / hdg 137

(C) RW 25 length 8000 ft width 200 ft
---- / hdg 249

(D) RW 32 length 8001 ft width 200 ft
---- / hdg 317

Location; KNUW
Day. 24 / Time. 01.56 Zulu
* Altimeter: 29.79
* Temperature: 08° c. 46.4°f.
* Wind from: 130° Speed 17 kn with Gusts up to 26 kn.
Dewpoint: 06° c.
Visibility: 10 Statute Miles.
Clouds: Broken 2700 ft.
Clouds: Broken 5500 ft.
Clouds: Overcast 1000 ft.
Conditions: Light Rain.

KNUW 240156Z 13017G26KT 10SM -RA BKN027 BKN055 OVC100 08/06 A2979 RMK AO2 PK WND 13030/0126 RAB05 SLP087 P0006 T00830061 $


Wind From 130°
Speed 17 kn.

YouTube Music Video
 
jpsmedia.com for Web Design  worldairports.se 2018   terms of use